createdAt,value
2022-08-05T00:03:44.312Z,2.53
2022-08-05T00:06:35.776Z,2.70
2022-08-05T00:12:04.564Z,3.07
2022-08-05T00:17:41.235Z,3.33
2022-08-05T00:23:12.823Z,2.90
2022-08-05T00:28:49.387Z,3.10
2022-08-05T00:31:53.609Z,2.87
2022-08-05T00:34:54.615Z,3.07
2022-08-05T00:40:09.503Z,3.10
2022-08-05T00:45:43.719Z,2.70
2022-08-05T00:48:31.414Z,2.50
2022-08-05T00:54:07.766Z,2.83
2022-08-05T00:59:44.653Z,2.80
2022-08-05T01:02:36.321Z,3.03
2022-08-05T01:08:41.180Z,2.70
2022-08-05T01:13:59.905Z,2.60
2022-08-05T01:20:01.338Z,2.40
2022-08-05T01:22:39.533Z,2.47
2022-08-05T01:28:35.537Z,2.30
2022-08-05T01:31:27.923Z,2.00
2022-08-05T01:37:07.355Z,2.30
2022-08-05T01:45:34.926Z,2.20
2022-08-05T01:51:11.971Z,2.20
2022-08-05T01:53:58.857Z,2.03
2022-08-05T01:58:11.774Z,2.30
2022-08-05T01:59:41.830Z,2.20
2022-08-05T02:02:33.925Z,2.17
2022-08-05T02:05:28.635Z,2.40
2022-08-05T02:08:30.731Z,2.40
2022-08-05T02:11:11.623Z,2.20
2022-08-05T02:14:02.345Z,2.67
2022-08-05T02:22:40.434Z,2.00
2022-08-05T02:28:21.502Z,2.40
2022-08-05T02:36:50.379Z,1.93
2022-08-05T02:39:41.180Z,1.90
2022-08-05T02:48:14.609Z,1.93
2022-08-05T02:53:54.841Z,2.00
2022-08-05T02:56:43.979Z,2.27
2022-08-05T02:59:48.124Z,1.63
2022-08-05T03:06:56.095Z,1.87
2022-08-05T03:11:56.273Z,1.93
2022-08-05T03:16:40.164Z,2.20
2022-08-05T03:19:34.470Z,1.93
2022-08-05T03:25:31.853Z,1.80
2022-08-05T03:28:02.111Z,2.13
2022-08-05T03:30:52.773Z,2.33
2022-08-05T03:36:28.050Z,2.30
2022-08-05T03:41:56.645Z,1.90
2022-08-05T03:47:35.568Z,2.33
2022-08-05T03:55:53.788Z,2.53
2022-08-05T03:58:43.730Z,2.70
2022-08-05T04:01:34.572Z,2.40
2022-08-05T04:07:12.037Z,2.50
2022-08-05T04:15:36.692Z,2.30
2022-08-05T04:18:25.714Z,2.57
2022-08-05T04:24:05.977Z,2.47
2022-08-05T04:29:36.939Z,2.40
2022-08-05T04:32:31.005Z,2.27
2022-08-05T04:35:20.072Z,2.50
2022-08-05T04:40:57.166Z,2.67
2022-08-05T04:46:35.887Z,2.50
2022-08-05T04:52:14.843Z,2.20
2022-08-05T04:57:54.191Z,2.23
2022-08-05T05:00:41.876Z,2.37
2022-08-05T05:06:40.468Z,2.30
2022-08-05T05:11:55.523Z,2.10
2022-08-05T05:17:55.787Z,2.20
2022-08-05T05:20:20.307Z,2.43
2022-08-05T05:25:59.448Z,4.23
2022-08-05T05:28:49.188Z,3.53
2022-08-05T05:34:24.263Z,3.90
2022-08-05T05:37:15.676Z,2.47
2022-08-05T05:40:04.407Z,2.07
2022-08-05T05:45:48.289Z,2.07
2022-08-05T05:51:21.991Z,1.97
2022-08-05T05:54:11.653Z,1.90
2022-08-05T05:59:48.811Z,2.10
2022-08-05T06:05:55.768Z,1.70
2022-08-05T06:11:35.461Z,1.70
2022-08-05T06:17:24.453Z,1.87
2022-08-05T06:20:02.254Z,1.40
2022-08-05T06:26:12.890Z,1.57
2022-08-05T06:31:22.590Z,1.90
2022-08-05T06:34:12.108Z,1.63
2022-08-05T06:37:02.543Z,1.60
2022-08-05T06:39:51.392Z,2.10
2022-08-05T06:42:40.643Z,1.90
2022-08-05T06:48:53.142Z,1.77
2022-08-05T06:53:57.491Z,2.60
2022-08-05T06:59:38.847Z,2.10
2022-08-05T07:05:15.321Z,2.00
2022-08-05T07:08:02.414Z,1.70
2022-08-05T07:13:58.116Z,1.70
2022-08-05T07:20:10.656Z,1.33
2022-08-05T07:24:55.162Z,1.73
2022-08-05T07:30:32.004Z,1.80
2022-08-05T07:36:21.139Z,1.60
2022-08-05T07:42:14.782Z,2.03
2022-08-05T07:47:20.629Z,1.60
2022-08-05T07:53:13.931Z,1.80
2022-08-05T07:58:57.503Z,2.20
2022-08-05T08:04:22.973Z,1.97
2022-08-05T08:07:09.957Z,2.00
2022-08-05T08:12:49.198Z,1.77
2022-08-05T08:18:24.586Z,1.90
2022-08-05T08:24:04.907Z,1.90
2022-08-05T08:30:05.481Z,1.50
2022-08-05T08:32:28.094Z,1.50
2022-08-05T08:37:45.083Z,1.50
2022-08-05T08:45:18.162Z,1.50
2022-08-05T08:50:23.069Z,1.53
2022-08-05T08:54:44.857Z,1.70
2022-08-05T09:06:08.637Z,1.60
2022-08-05T09:08:45.787Z,1.62
2022-08-05T09:11:53.370Z,1.60
2022-08-05T09:17:40.231Z,1.70
2022-08-05T09:20:09.071Z,1.80
2022-08-05T09:26:09.244Z,1.92
2022-08-05T09:32:40.148Z,1.93
2022-08-05T09:38:16.163Z,1.90
2022-08-05T09:40:37.764Z,1.53
2022-08-05T09:43:41.255Z,1.70
2022-08-05T09:46:30.799Z,2.00
2022-08-05T09:49:40.311Z,1.43
2022-08-05T09:52:29.034Z,1.83
2022-08-05T09:55:56.749Z,2.00
2022-08-05T10:00:58.046Z,1.70
2022-08-05T10:04:00.140Z,1.93
2022-08-05T10:06:59.469Z,1.90
2022-08-05T10:12:49.289Z,1.73
2022-08-05T10:15:34.338Z,1.47
2022-08-05T10:18:24.045Z,1.80
2022-08-05T10:26:54.510Z,1.90
2022-08-05T10:32:53.046Z,1.45
2022-08-05T10:38:11.890Z,1.80
2022-08-05T10:43:53.225Z,1.60
2022-08-05T10:49:33.348Z,1.80
2022-08-05T10:52:39.008Z,1.50
2022-08-05T10:58:18.013Z,1.60
2022-08-05T11:01:11.460Z,1.57
2022-08-05T11:07:10.809Z,1.60
2022-08-05T11:12:55.304Z,1.47
2022-08-05T11:18:32.678Z,1.90
2022-08-05T11:24:30.308Z,1.70
2022-08-05T11:27:51.078Z,1.80
2022-08-05T11:33:44.219Z,1.70
2022-08-05T11:36:34.270Z,1.67
2022-08-05T11:42:02.228Z,1.60
2022-08-05T11:44:54.027Z,2.10
2022-08-05T11:47:48.828Z,2.02
2022-08-05T11:50:30.834Z,2.20
2022-08-05T11:53:20.238Z,1.77
2022-08-05T11:58:55.190Z,1.83
2022-08-05T12:08:04.395Z,1.80
2022-08-05T12:10:38.660Z,1.90
2022-08-05T12:16:04.292Z,1.98
2022-08-05T12:18:55.468Z,1.90
2022-08-05T12:21:49.108Z,2.00
2022-08-05T12:24:43.588Z,2.00
2022-08-05T12:30:22.301Z,2.08
2022-08-05T12:35:53.361Z,2.02
2022-08-05T12:41:34.377Z,1.92
2022-08-05T12:44:33.141Z,2.15
2022-08-05T12:50:16.746Z,2.30
2022-08-05T12:55:56.452Z,2.33
2022-08-05T13:02:02.597Z,2.50
2022-08-05T13:07:16.149Z,2.35
2022-08-05T13:10:02.135Z,2.60
2022-08-05T13:15:50.362Z,2.50
2022-08-05T13:18:39.857Z,2.60
2022-08-05T13:24:27.751Z,2.47
2022-08-05T13:27:11.078Z,2.33
2022-08-05T13:32:50.398Z,2.40
2022-08-05T13:41:07.618Z,2.42
2022-08-05T13:43:56.416Z,2.35
2022-08-05T13:47:02.545Z,2.60
2022-08-05T13:49:35.552Z,2.27
2022-08-05T13:52:29.470Z,2.50
2022-08-05T13:58:05.807Z,2.30
2022-08-05T14:00:59.084Z,2.67
2022-08-05T14:03:51.389Z,2.55
2022-08-05T14:06:39.823Z,2.75
2022-08-05T14:12:18.194Z,3.30
2022-08-05T14:16:05.259Z,2.58
2022-08-05T14:17:59.467Z,2.55
2022-08-05T14:20:46.822Z,2.67
2022-08-05T14:23:38.172Z,2.62
2022-08-05T14:26:36.764Z,2.30
2022-08-05T14:32:13.729Z,2.45
2022-08-05T14:37:45.623Z,2.50
2022-08-05T14:46:08.267Z,2.30
2022-08-05T14:51:43.223Z,2.42
2022-08-05T14:57:33.943Z,2.40
2022-08-05T15:00:20.002Z,2.35
2022-08-05T15:06:08.159Z,2.40
2022-08-05T15:08:59.661Z,2.65
2022-08-05T15:14:33.396Z,2.80
2022-08-05T15:17:44.443Z,2.50
2022-08-05T15:22:52.334Z,2.67
2022-08-05T15:25:53.834Z,2.45
2022-08-05T15:34:32.587Z,5.20
2022-08-05T15:41:00.282Z,2.85
2022-08-05T15:45:38.505Z,2.80
2022-08-05T15:48:15.452Z,2.50
2022-08-05T15:53:51.819Z,3.60
2022-08-05T15:59:26.730Z,3.10
2022-08-05T16:05:13.827Z,2.98
2022-08-05T16:08:04.059Z,3.10
2022-08-05T16:13:41.705Z,2.50
2022-08-05T16:19:19.197Z,2.70
2022-08-05T16:24:51.797Z,2.92
2022-08-05T16:30:23.230Z,2.67
2022-08-05T16:35:56.256Z,3.67
2022-08-05T16:42:14.277Z,3.00
2022-08-05T16:44:25.792Z,2.75
2022-08-05T16:50:02.481Z,3.02
2022-08-05T16:52:56.656Z,2.70
2022-08-05T16:58:26.883Z,3.65
2022-08-05T17:04:04.085Z,3.00
2022-08-05T17:06:53.770Z,3.10
2022-08-05T17:12:51.676Z,3.20
2022-08-05T17:17:56.712Z,3.40
2022-08-05T17:24:03.525Z,3.50
2022-08-05T17:29:11.540Z,3.90
2022-08-05T17:34:40.992Z,4.40
2022-08-05T17:40:22.415Z,3.70
2022-08-05T17:45:48.578Z,3.57
2022-08-05T17:48:43.304Z,3.90
2022-08-05T17:51:40.534Z,3.97
2022-08-05T17:54:23.587Z,4.27
2022-08-05T18:00:05.065Z,4.47
2022-08-05T18:05:35.180Z,4.00
2022-08-05T18:10:58.712Z,3.60
2022-08-05T18:13:46.923Z,3.60
2022-08-05T18:16:46.753Z,3.50
2022-08-05T18:19:26.645Z,4.40
2022-08-05T18:22:17.994Z,4.40
2022-08-05T18:25:06.745Z,4.17
2022-08-05T18:30:39.017Z,3.90
2022-08-05T18:33:27.089Z,4.33
2022-08-05T18:38:57.280Z,4.60
2022-08-05T18:44:35.181Z,3.83
2022-08-05T18:47:17.336Z,3.63
2022-08-05T18:52:51.365Z,4.47
2022-08-05T18:58:16.630Z,3.70
2022-08-05T19:03:56.691Z,4.47
2022-08-05T19:09:27.385Z,4.53
2022-08-05T19:12:17.879Z,5.10
2022-08-05T19:18:08.464Z,4.13
2022-08-05T19:20:41.322Z,4.83
2022-08-05T19:24:07.124Z,5.70
2022-08-05T19:29:11.020Z,4.33
2022-08-05T19:32:00.893Z,4.47
2022-08-05T19:34:54.736Z,4.47
2022-08-05T19:40:30.683Z,5.07
2022-08-05T19:46:16.702Z,5.00
2022-08-05T19:49:04.112Z,4.37
2022-08-05T19:54:32.648Z,4.07
2022-08-05T20:00:13.999Z,4.00
2022-08-05T20:03:05.388Z,4.30
2022-08-05T20:05:56.747Z,3.83
2022-08-05T20:11:37.750Z,3.83
2022-08-05T20:14:27.103Z,3.63
2022-08-05T20:17:16.317Z,3.80
2022-08-05T20:20:09.539Z,3.53
2022-08-05T20:25:40.556Z,3.70
2022-08-05T20:28:36.709Z,4.43
2022-08-05T20:31:42.833Z,3.90
2022-08-05T20:37:24.050Z,4.00
2022-08-05T20:40:02.809Z,4.63
2022-08-05T20:45:56.625Z,5.47
2022-08-05T20:48:36.549Z,5.73
2022-08-05T20:54:14.436Z,5.30
2022-08-05T20:57:03.579Z,4.77
2022-08-05T21:02:43.671Z,5.00
2022-08-05T21:05:48.035Z,4.37
2022-08-05T21:11:10.161Z,4.33
2022-08-05T21:17:04.893Z,4.13
2022-08-05T21:22:39.739Z,4.20
2022-08-05T21:25:33.507Z,4.00
2022-08-05T21:31:09.091Z,3.80
2022-08-05T21:33:57.712Z,4.47
2022-08-05T21:39:40.756Z,4.50
2022-08-05T21:42:40.838Z,4.37
2022-08-05T21:45:24.783Z,4.73
2022-08-05T21:50:54.835Z,4.67
2022-08-05T21:53:59.472Z,4.47
2022-08-05T21:56:51.403Z,3.70
2022-08-05T22:00:02.035Z,3.50
2022-08-05T22:05:15.300Z,3.37
2022-08-05T22:10:53.253Z,3.47
2022-08-05T22:16:41.383Z,3.70
2022-08-05T22:21:57.808Z,3.97
2022-08-05T22:25:04.269Z,5.23
2022-08-05T22:28:09.385Z,6.00
2022-08-05T22:33:55.506Z,6.50
2022-08-05T22:39:09.484Z,8.70
2022-08-05T22:44:42.422Z,7.07
2022-08-05T22:47:31.222Z,5.93
2022-08-05T22:53:09.760Z,5.27
2022-08-05T22:58:49.566Z,4.83
2022-08-05T23:02:03.963Z,4.90
2022-08-05T23:07:16.325Z,3.83
2022-08-05T23:12:56.246Z,4.10
2022-08-05T23:18:37.022Z,4.17
2022-08-05T23:24:14.658Z,4.10
2022-08-05T23:29:50.759Z,3.73
2022-08-05T23:32:45.016Z,4.03
2022-08-05T23:38:12.136Z,3.43
2022-08-05T23:41:02.449Z,4.00
2022-08-05T23:44:05.320Z,3.90
2022-08-05T23:46:42.538Z,3.60
2022-08-05T23:52:30.790Z,3.60
2022-08-05T23:55:21.713Z,3.50
